createdAt,value
2019-06-01T00:00:27.442Z,87
2019-06-01T00:05:44.999Z,87
2019-06-01T00:10:57.795Z,86
2019-06-01T00:16:15.038Z,87
2019-06-01T00:21:29.831Z,87
2019-06-01T00:26:47.792Z,87
2019-06-01T00:32:02.660Z,87
2019-06-01T00:37:17.966Z,86
2019-06-01T00:37:53.913Z,86
2019-06-01T00:43:07.363Z,86
2019-06-01T00:48:22.369Z,86
2019-06-01T00:54:43.558Z,86
2019-06-01T00:59:57.665Z,86
2019-06-01T01:05:12.932Z,86
2019-06-01T01:10:26.090Z,87
2019-06-01T01:15:45.464Z,87
2019-06-01T01:21:02.373Z,87
2019-06-01T01:26:17.181Z,87
2019-06-01T01:27:25.403Z,86
2019-06-01T01:32:38.906Z,86
2019-06-01T01:37:54.284Z,86
2019-06-01T01:43:09.627Z,87
2019-06-01T01:48:26.853Z,88
2019-06-01T01:53:42.978Z,87
2019-06-01T01:58:58.829Z,87
2019-06-01T02:04:13.333Z,87
2019-06-01T02:09:28.543Z,87
2019-06-01T02:14:46.699Z,87
2019-06-01T02:20:02.982Z,87
2019-06-01T02:25:16.982Z,87
2019-06-01T02:30:32.853Z,87
2019-06-01T02:35:49.598Z,87
2019-06-01T02:41:06.225Z,87
2019-06-01T02:51:37.030Z,89
2019-06-01T02:56:52.526Z,89
2019-06-01T03:02:15.443Z,88
2019-06-01T03:07:29.676Z,87
2019-06-01T03:12:46.123Z,87
2019-06-01T03:18:37.723Z,87
2019-06-01T03:23:51.860Z,87
2019-06-01T03:29:35.992Z,87
2019-06-01T03:34:50.240Z,87
2019-06-01T03:40:24.381Z,87
2019-06-01T03:45:38.102Z,87
2019-06-01T03:50:53.841Z,87
2019-06-01T03:57:09.614Z,87
2019-06-01T03:58:11.687Z,87
2019-06-01T04:03:25.284Z,87
2019-06-01T04:10:17.394Z,87
2019-06-01T04:15:31.708Z,87
2019-06-01T04:20:46.747Z,87
2019-06-01T04:26:02.573Z,87
2019-06-01T04:31:17.771Z,87
2019-06-01T04:36:32.884Z,87
2019-06-01T04:41:48.023Z,87
2019-06-01T04:47:41.233Z,87
2019-06-01T04:52:54.620Z,87
2019-06-01T04:58:11.530Z,86
2019-06-01T05:05:02.064Z,86
2019-06-01T05:10:16.606Z,86
2019-06-01T05:15:32.882Z,86
2019-06-01T05:26:02.531Z,88
2019-06-01T05:26:31.578Z,88
2019-06-01T05:31:46.402Z,88
2019-06-01T05:37:02.210Z,87
2019-06-01T05:37:38.941Z,87
2019-06-01T05:42:50.288Z,88
2019-06-01T05:48:07.851Z,88
2019-06-01T05:53:23.524Z,86
2019-06-01T05:58:38.492Z,86
2019-06-01T06:03:54.637Z,86
2019-06-01T06:09:08.647Z,85
2019-06-01T06:14:24.831Z,85
2019-06-01T06:19:39.868Z,85
2019-06-01T06:24:54.998Z,85
2019-06-01T06:30:10.384Z,85
2019-06-01T06:35:25.642Z,85
2019-06-01T06:40:41.107Z,85
2019-06-01T06:45:58.156Z,84
2019-06-01T06:51:15.593Z,83
2019-06-01T06:56:30.994Z,81
2019-06-01T07:01:47.294Z,82
2019-06-01T07:07:04.988Z,82
2019-06-01T07:12:21.666Z,79
2019-06-01T07:17:37.244Z,77
2019-06-01T07:22:50.637Z,77
2019-06-01T07:28:12.698Z,75
2019-06-01T07:38:45.478Z,76
2019-06-01T07:44:01.024Z,75
2019-06-01T07:54:30.458Z,73
2019-06-01T08:25:54.163Z,70
2019-06-01T08:31:10.908Z,69
2019-06-01T08:36:27.732Z,70
2019-06-01T08:41:49.254Z,68
2019-06-01T08:47:04.927Z,68
2019-06-01T08:52:24.362Z,67
2019-06-01T09:39:31.369Z,65
2019-06-01T09:55:17.943Z,64
2019-06-01T10:00:43.721Z,63
2019-06-01T10:37:18.475Z,63
2019-06-01T10:42:39.898Z,63
2019-06-01T10:47:55.094Z,63
2019-06-01T10:58:24.733Z,63
2019-06-01T11:03:41.181Z,63
2019-06-01T11:08:56.186Z,63
2019-06-01T11:14:11.743Z,61
2019-06-01T11:19:27.162Z,61
2019-06-01T11:24:42.409Z,60
2019-06-01T11:29:58.440Z,59
2019-06-01T11:45:41.218Z,60
2019-06-01T11:50:57.353Z,59
2019-06-01T11:56:13.074Z,59
2019-06-01T12:01:27.359Z,57
2019-06-01T12:27:40.025Z,58
2019-06-01T12:38:10.010Z,57
2019-06-01T13:20:00.150Z,59
2019-06-01T13:40:56.524Z,58
2019-06-01T13:46:12.183Z,59
2019-06-01T14:07:20.213Z,57
2019-06-01T14:12:36.753Z,55
2019-06-01T14:28:20.083Z,54
2019-06-01T14:49:16.059Z,52
2019-06-01T14:59:46.335Z,51
2019-06-01T15:46:53.497Z,51
2019-06-01T17:41:49.892Z,59
2019-06-01T17:57:31.629Z,61
2019-06-01T18:02:45.459Z,62
2019-06-01T18:08:02.334Z,63
2019-06-01T18:13:18.202Z,63
2019-06-01T18:18:34.046Z,64
2019-06-01T18:23:51.246Z,64
2019-06-01T18:29:06.974Z,64
2019-06-01T18:34:22.285Z,65
2019-06-01T18:39:36.844Z,65
2019-06-01T18:44:53.112Z,66
2019-06-01T18:50:17.733Z,66
2019-06-01T18:55:31.171Z,67
2019-06-01T19:00:47.035Z,66
2019-06-01T19:06:02.304Z,67
2019-06-01T19:11:36.586Z,68
2019-06-01T19:16:49.010Z,68
2019-06-01T19:22:06.804Z,67
2019-06-01T19:27:21.066Z,68
2019-06-01T19:32:36.693Z,68
2019-06-01T19:37:52.071Z,69
2019-06-01T19:43:07.837Z,70
2019-06-01T19:48:22.532Z,70
2019-06-01T19:53:37.416Z,70
2019-06-01T19:58:55.095Z,70
2019-06-01T20:04:10.915Z,70
2019-06-01T20:09:26.288Z,70
2019-06-01T20:14:41.851Z,70
2019-06-01T20:19:58.650Z,71
2019-06-01T20:25:13.709Z,71
2019-06-01T20:30:28.432Z,71
2019-06-01T20:35:43.281Z,71
2019-06-01T20:40:58.323Z,72
2019-06-01T20:46:14.972Z,72
2019-06-01T20:51:29.716Z,72
2019-06-01T20:56:44.504Z,72
2019-06-01T21:02:00.031Z,72
2019-06-01T21:07:15.983Z,73
2019-06-01T21:13:12.027Z,73
2019-06-01T21:18:25.751Z,73
2019-06-01T21:23:41.289Z,73
2019-06-01T21:28:57.290Z,74
2019-06-01T21:34:17.335Z,75
2019-06-01T21:39:32.621Z,75
2019-06-01T21:44:48.777Z,75
2019-06-01T21:50:06.241Z,77
2019-06-01T21:55:22.503Z,77
2019-06-01T22:00:37.123Z,76
2019-06-01T22:05:50.824Z,75
2019-06-01T22:11:06.641Z,76
2019-06-01T22:16:24.059Z,77
2019-06-01T22:21:39.528Z,76
2019-06-01T22:26:55.601Z,76
2019-06-01T22:32:10.874Z,76
2019-06-01T22:37:26.244Z,76
2019-06-01T22:42:40.826Z,78
2019-06-01T22:47:57.448Z,78
2019-06-01T22:53:12.436Z,78
2019-06-01T22:58:29.747Z,78
2019-06-01T23:03:45.173Z,77
2019-06-01T23:09:00.552Z,78
2019-06-01T23:14:15.615Z,78
2019-06-01T23:20:07.185Z,78
2019-06-01T23:25:22.842Z,78
2019-06-01T23:30:38.590Z,78
2019-06-01T23:35:55.066Z,78
2019-06-01T23:46:27.100Z,80
2019-06-01T23:51:41.714Z,80
2019-06-01T23:56:56.523Z,79
